sensor_id;sensor_type;location;lat;lon;timestamp;P1;durP1;ratioP1;P2;durP2;ratioP2
48789;SDS011;41718;51.980;5.734;2023-04-19T00:03:57;11.93;;;7.72;;
48789;SDS011;41718;51.980;5.734;2023-04-19T00:08:58;14.10;;;7.95;;
48789;SDS011;41718;51.980;5.734;2023-04-19T00:14:00;13.45;;;8.25;;
48789;SDS011;41718;51.980;5.734;2023-04-19T00:19:01;15.20;;;8.70;;
48789;SDS011;41718;51.980;5.734;2023-04-19T00:24:03;12.63;;;8.35;;
48789;SDS011;41718;51.980;5.734;2023-04-19T00:29:04;12.02;;;9.80;;
48789;SDS011;41718;51.980;5.734;2023-04-19T00:34:06;11.65;;;8.27;;
48789;SDS011;41718;51.980;5.734;2023-04-19T00:39:08;13.60;;;9.55;;
48789;SDS011;41718;51.980;5.734;2023-04-19T00:44:09;13.60;;;9.00;;
48789;SDS011;41718;51.980;5.734;2023-04-19T00:49:11;13.38;;;9.25;;
48789;SDS011;41718;51.980;5.734;2023-04-19T00:54:12;10.88;;;9.57;;
48789;SDS011;41718;51.980;5.734;2023-04-19T00:59:15;16.27;;;9.43;;
48789;SDS011;41718;51.980;5.734;2023-04-19T01:04:17;13.75;;;7.97;;
48789;SDS011;41718;51.980;5.734;2023-04-19T01:09:19;10.75;;;7.97;;
48789;SDS011;41718;51.980;5.734;2023-04-19T01:14:21;13.45;;;9.48;;
48789;SDS011;41718;51.980;5.734;2023-04-19T01:19:22;12.57;;;8.73;;
48789;SDS011;41718;51.980;5.734;2023-04-19T01:24:24;13.32;;;9.23;;
48789;SDS011;41718;51.980;5.734;2023-04-19T01:29:25;13.65;;;8.95;;
48789;SDS011;41718;51.980;5.734;2023-04-19T01:34:27;12.25;;;9.32;;
48789;SDS011;41718;51.980;5.734;2023-04-19T01:39:28;13.73;;;9.57;;
48789;SDS011;41718;51.980;5.734;2023-04-19T01:44:30;12.13;;;8.77;;
48789;SDS011;41718;51.980;5.734;2023-04-19T01:49:31;14.63;;;8.95;;
48789;SDS011;41718;51.980;5.734;2023-04-19T01:54:33;16.80;;;10.32;;
48789;SDS011;41718;51.980;5.734;2023-04-19T01:59:34;14.38;;;9.63;;
48789;SDS011;41718;51.980;5.734;2023-04-19T02:04:36;11.98;;;9.20;;
48789;SDS011;41718;51.980;5.734;2023-04-19T02:09:37;16.42;;;10.07;;
48789;SDS011;41718;51.980;5.734;2023-04-19T02:14:39;16.77;;;9.65;;
48789;SDS011;41718;51.980;5.734;2023-04-19T02:19:40;13.05;;;8.88;;
48789;SDS011;41718;51.980;5.734;2023-04-19T02:24:42;14.98;;;9.07;;
48789;SDS011;41718;51.980;5.734;2023-04-19T02:29:43;13.77;;;9.77;;
48789;SDS011;41718;51.980;5.734;2023-04-19T02:34:45;12.02;;;8.65;;
48789;SDS011;41718;51.980;5.734;2023-04-19T02:39:46;14.20;;;9.00;;
48789;SDS011;41718;51.980;5.734;2023-04-19T02:44:48;13.48;;;9.15;;
48789;SDS011;41718;51.980;5.734;2023-04-19T02:49:49;12.77;;;8.60;;
48789;SDS011;41718;51.980;5.734;2023-04-19T02:54:51;14.88;;;9.18;;
48789;SDS011;41718;51.980;5.734;2023-04-19T02:59:52;13.07;;;8.90;;
48789;SDS011;41718;51.980;5.734;2023-04-19T03:04:53;15.20;;;8.52;;
48789;SDS011;41718;51.980;5.734;2023-04-19T03:09:55;13.65;;;9.75;;
48789;SDS011;41718;51.980;5.734;2023-04-19T03:14:56;15.77;;;8.85;;
48789;SDS011;41718;51.980;5.734;2023-04-19T03:19:58;10.43;;;8.23;;
48789;SDS011;41718;51.980;5.734;2023-04-19T03:24:59;15.27;;;8.82;;
48789;SDS011;41718;51.980;5.734;2023-04-19T03:30:01;10.20;;;6.82;;
48789;SDS011;41718;51.980;5.734;2023-04-19T03:35:03;9.45;;;6.68;;
48789;SDS011;41718;51.980;5.734;2023-04-19T03:40:04;10.50;;;7.32;;
48789;SDS011;41718;51.980;5.734;2023-04-19T03:45:07;8.77;;;6.90;;
48789;SDS011;41718;51.980;5.734;2023-04-19T03:50:08;10.50;;;7.03;;
48789;SDS011;41718;51.980;5.734;2023-04-19T03:55:10;10.02;;;6.93;;
48789;SDS011;41718;51.980;5.734;2023-04-19T04:00:12;8.65;;;6.68;;
48789;SDS011;41718;51.980;5.734;2023-04-19T04:05:14;9.85;;;6.45;;
48789;SDS011;41718;51.980;5.734;2023-04-19T04:10:16;8.80;;;6.07;;
48789;SDS011;41718;51.980;5.734;2023-04-19T04:15:17;10.02;;;6.30;;
48789;SDS011;41718;51.980;5.734;2023-04-19T04:20:19;8.10;;;6.40;;
48789;SDS011;41718;51.980;5.734;2023-04-19T04:25:21;9.90;;;6.30;;
48789;SDS011;41718;51.980;5.734;2023-04-19T04:30:23;9.85;;;6.25;;
48789;SDS011;41718;51.980;5.734;2023-04-19T04:35:28;10.20;;;6.63;;
48789;SDS011;41718;51.980;5.734;2023-04-19T04:40:30;11.35;;;7.05;;
48789;SDS011;41718;51.980;5.734;2023-04-19T04:45:32;7.80;;;5.78;;
48789;SDS011;41718;51.980;5.734;2023-04-19T04:50:34;16.23;;;8.20;;
48789;SDS011;41718;51.980;5.734;2023-04-19T04:55:35;9.10;;;6.25;;
48789;SDS011;41718;51.980;5.734;2023-04-19T05:00:37;9.88;;;6.80;;
48789;SDS011;41718;51.980;5.734;2023-04-19T05:05:38;9.38;;;6.35;;
48789;SDS011;41718;51.980;5.734;2023-04-19T05:10:40;10.70;;;6.60;;
48789;SDS011;41718;51.980;5.734;2023-04-19T05:15:41;10.07;;;6.25;;
48789;SDS011;41718;51.980;5.734;2023-04-19T05:20:43;10.27;;;6.35;;
48789;SDS011;41718;51.980;5.734;2023-04-19T05:25:46;7.90;;;6.00;;
48789;SDS011;41718;51.980;5.734;2023-04-19T05:30:48;8.25;;;5.75;;
48789;SDS011;41718;51.980;5.734;2023-04-19T05:35:49;10.98;;;5.85;;
48789;SDS011;41718;51.980;5.734;2023-04-19T05:40:51;8.88;;;5.63;;
48789;SDS011;41718;51.980;5.734;2023-04-19T05:45:52;8.35;;;6.22;;
48789;SDS011;41718;51.980;5.734;2023-04-19T05:50:54;10.63;;;6.80;;
48789;SDS011;41718;51.980;5.734;2023-04-19T05:55:58;11.20;;;6.82;;
48789;SDS011;41718;51.980;5.734;2023-04-19T06:00:59;6.88;;;5.88;;
48789;SDS011;41718;51.980;5.734;2023-04-19T06:06:01;7.28;;;5.65;;
48789;SDS011;41718;51.980;5.734;2023-04-19T06:11:12;11.15;;;6.43;;
48789;SDS011;41718;51.980;5.734;2023-04-19T06:16:26;7.57;;;5.57;;
48789;SDS011;41718;51.980;5.734;2023-04-19T06:21:29;9.10;;;5.72;;
48789;SDS011;41718;51.980;5.734;2023-04-19T06:26:31;8.05;;;4.80;;
48789;SDS011;41718;51.980;5.734;2023-04-19T06:31:33;6.90;;;4.95;;
48789;SDS011;41718;51.980;5.734;2023-04-19T06:36:34;7.35;;;5.20;;
48789;SDS011;41718;51.980;5.734;2023-04-19T06:41:36;8.07;;;4.55;;
48789;SDS011;41718;51.980;5.734;2023-04-19T06:46:38;8.02;;;4.45;;
48789;SDS011;41718;51.980;5.734;2023-04-19T06:51:39;6.30;;;4.68;;
48789;SDS011;41718;51.980;5.734;2023-04-19T06:56:41;11.38;;;5.55;;
48789;SDS011;41718;51.980;5.734;2023-04-19T07:01:46;6.72;;;4.43;;
48789;SDS011;41718;51.980;5.734;2023-04-19T07:06:48;6.85;;;4.28;;
48789;SDS011;41718;51.980;5.734;2023-04-19T07:11:50;5.78;;;4.00;;
48789;SDS011;41718;51.980;5.734;2023-04-19T07:16:51;8.40;;;4.28;;
48789;SDS011;41718;51.980;5.734;2023-04-19T07:21:53;6.95;;;4.43;;
48789;SDS011;41718;51.980;5.734;2023-04-19T07:26:55;4.45;;;3.50;;
48789;SDS011;41718;51.980;5.734;2023-04-19T07:31:57;7.63;;;3.40;;
48789;SDS011;41718;51.980;5.734;2023-04-19T07:37:01;4.07;;;3.13;;
48789;SDS011;41718;51.980;5.734;2023-04-19T07:42:03;5.53;;;3.72;;
48789;SDS011;41718;51.980;5.734;2023-04-19T07:47:04;5.55;;;3.10;;
48789;SDS011;41718;51.980;5.734;2023-04-19T07:52:06;5.75;;;3.30;;
48789;SDS011;41718;51.980;5.734;2023-04-19T07:57:07;5.93;;;3.35;;
48789;SDS011;41718;51.980;5.734;2023-04-19T08:02:09;5.65;;;2.97;;
48789;SDS011;41718;51.980;5.734;2023-04-19T08:07:11;4.40;;;3.35;;
48789;SDS011;41718;51.980;5.734;2023-04-19T08:12:12;5.68;;;2.88;;
48789;SDS011;41718;51.980;5.734;2023-04-19T08:17:33;3.38;;;2.55;;
48789;SDS011;41718;51.980;5.734;2023-04-19T08:22:42;4.88;;;2.60;;
48789;SDS011;41718;51.980;5.734;2023-04-19T08:27:43;3.60;;;2.13;;
48789;SDS011;41718;51.980;5.734;2023-04-19T08:32:45;4.88;;;2.55;;
48789;SDS011;41718;51.980;5.734;2023-04-19T08:37:47;6.40;;;2.25;;
48789;SDS011;41718;51.980;5.734;2023-04-19T08:42:49;4.57;;;2.75;;
48789;SDS011;41718;51.980;5.734;2023-04-19T08:47:50;2.00;;;1.50;;
48789;SDS011;41718;51.980;5.734;2023-04-19T08:53:01;2.85;;;1.65;;
48789;SDS011;41718;51.980;5.734;2023-04-19T08:58:24;1.73;;;1.60;;
48789;SDS011;41718;51.980;5.734;2023-04-19T09:03:41;3.92;;;1.95;;
48789;SDS011;41718;51.980;5.734;2023-04-19T09:09:13;1.08;;;0.98;;
48789;SDS011;41718;51.980;5.734;2023-04-19T09:14:35;1.25;;;1.00;;
48789;SDS011;41718;51.980;5.734;2023-04-19T09:20:01;2.53;;;0.95;;
48789;SDS011;41718;51.980;5.734;2023-04-19T09:25:04;1.80;;;1.27;;
48789;SDS011;41718;51.980;5.734;2023-04-19T09:30:09;1.40;;;1.13;;
48789;SDS011;41718;51.980;5.734;2023-04-19T09:35:38;2.53;;;1.05;;
48789;SDS011;41718;51.980;5.734;2023-04-19T09:40:49;2.13;;;1.20;;
48789;SDS011;41718;51.980;5.734;2023-04-19T09:45:51;6.75;;;1.27;;
48789;SDS011;41718;51.980;5.734;2023-04-19T09:50:53;1.90;;;1.17;;
48789;SDS011;41718;51.980;5.734;2023-04-19T09:56:03;1.45;;;1.33;;
48789;SDS011;41718;51.980;5.734;2023-04-19T10:01:08;2.65;;;2.15;;
48789;SDS011;41718;51.980;5.734;2023-04-19T10:06:17;4.53;;;1.73;;
48789;SDS011;41718;51.980;5.734;2023-04-19T10:11:22;1.40;;;1.20;;
48789;SDS011;41718;51.980;5.734;2023-04-19T10:16:27;1.20;;;1.00;;
48789;SDS011;41718;51.980;5.734;2023-04-19T10:21:30;2.67;;;1.30;;
48789;SDS011;41718;51.980;5.734;2023-04-19T10:32:11;4.65;;;1.30;;
48789;SDS011;41718;51.980;5.734;2023-04-19T10:37:13;1.42;;;1.00;;
48789;SDS011;41718;51.980;5.734;2023-04-19T10:42:15;1.75;;;1.17;;
48789;SDS011;41718;51.980;5.734;2023-04-19T10:47:39;4.47;;;2.63;;
48789;SDS011;41718;51.980;5.734;2023-04-19T10:52:42;4.45;;;1.70;;
48789;SDS011;41718;51.980;5.734;2023-04-19T10:58:02;3.25;;;1.65;;
48789;SDS011;41718;51.980;5.734;2023-04-19T11:08:44;2.97;;;1.67;;
48789;SDS011;41718;51.980;5.734;2023-04-19T11:13:46;2.95;;;1.90;;
48789;SDS011;41718;51.980;5.734;2023-04-19T11:18:48;2.17;;;1.98;;
48789;SDS011;41718;51.980;5.734;2023-04-19T11:24:06;4.70;;;2.22;;
48789;SDS011;41718;51.980;5.734;2023-04-19T11:29:08;2.72;;;1.95;;
48789;SDS011;41718;51.980;5.734;2023-04-19T11:34:11;4.78;;;1.85;;
48789;SDS011;41718;51.980;5.734;2023-04-19T11:39:12;2.70;;;1.60;;
48789;SDS011;41718;51.980;5.734;2023-04-19T11:44:15;2.13;;;1.90;;
48789;SDS011;41718;51.980;5.734;2023-04-19T11:49:29;2.60;;;1.45;;
48789;SDS011;41718;51.980;5.734;2023-04-19T11:54:32;3.03;;;1.73;;
48789;SDS011;41718;51.980;5.734;2023-04-19T11:59:35;5.53;;;2.10;;
48789;SDS011;41718;51.980;5.734;2023-04-19T12:04:37;3.85;;;2.53;;
48789;SDS011;41718;51.980;5.734;2023-04-19T12:09:39;4.05;;;2.10;;
48789;SDS011;41718;51.980;5.734;2023-04-19T12:14:42;4.88;;;2.20;;
48789;SDS011;41718;51.980;5.734;2023-04-19T12:19:52;2.95;;;1.90;;
48789;SDS011;41718;51.980;5.734;2023-04-19T12:24:53;3.67;;;2.33;;
48789;SDS011;41718;51.980;5.734;2023-04-19T12:29:56;2.67;;;1.90;;
48789;SDS011;41718;51.980;5.734;2023-04-19T12:34:57;4.10;;;2.25;;
48789;SDS011;41718;51.980;5.734;2023-04-19T12:39:58;3.85;;;2.15;;
48789;SDS011;41718;51.980;5.734;2023-04-19T12:45:00;2.38;;;2.10;;
48789;SDS011;41718;51.980;5.734;2023-04-19T12:50:01;3.15;;;2.08;;
48789;SDS011;41718;51.980;5.734;2023-04-19T12:55:03;3.92;;;2.10;;
48789;SDS011;41718;51.980;5.734;2023-04-19T13:00:05;2.67;;;2.40;;
48789;SDS011;41718;51.980;5.734;2023-04-19T13:05:08;7.40;;;2.47;;
48789;SDS011;41718;51.980;5.734;2023-04-19T13:10:11;2.47;;;2.15;;
48789;SDS011;41718;51.980;5.734;2023-04-19T13:15:13;5.68;;;3.25;;
48789;SDS011;41718;51.980;5.734;2023-04-19T13:20:14;3.70;;;2.83;;
48789;SDS011;41718;51.980;5.734;2023-04-19T13:25:15;3.22;;;2.20;;
48789;SDS011;41718;51.980;5.734;2023-04-19T13:30:17;3.00;;;2.13;;
48789;SDS011;41718;51.980;5.734;2023-04-19T13:35:18;2.45;;;2.20;;
48789;SDS011;41718;51.980;5.734;2023-04-19T13:40:20;2.67;;;1.88;;
48789;SDS011;41718;51.980;5.734;2023-04-19T13:45:21;3.53;;;2.33;;
48789;SDS011;41718;51.980;5.734;2023-04-19T13:50:23;2.20;;;2.00;;
48789;SDS011;41718;51.980;5.734;2023-04-19T13:55:25;4.50;;;2.25;;
48789;SDS011;41718;51.980;5.734;2023-04-19T14:00:27;4.50;;;2.30;;
48789;SDS011;41718;51.980;5.734;2023-04-19T14:05:28;3.75;;;2.28;;
48789;SDS011;41718;51.980;5.734;2023-04-19T14:10:30;2.13;;;1.80;;
48789;SDS011;41718;51.980;5.734;2023-04-19T14:15:31;3.83;;;1.98;;
48789;SDS011;41718;51.980;5.734;2023-04-19T14:20:33;3.15;;;1.77;;
48789;SDS011;41718;51.980;5.734;2023-04-19T14:25:34;4.18;;;1.77;;
48789;SDS011;41718;51.980;5.734;2023-04-19T14:30:37;3.05;;;2.15;;
48789;SDS011;41718;51.980;5.734;2023-04-19T14:35:40;2.88;;;2.10;;
48789;SDS011;41718;51.980;5.734;2023-04-19T14:40:42;2.35;;;1.95;;
48789;SDS011;41718;51.980;5.734;2023-04-19T14:45:43;5.90;;;2.05;;
48789;SDS011;41718;51.980;5.734;2023-04-19T14:50:44;12.55;;;3.30;;
48789;SDS011;41718;51.980;5.734;2023-04-19T14:55:46;3.55;;;2.00;;
48789;SDS011;41718;51.980;5.734;2023-04-19T15:00:47;4.57;;;1.80;;
48789;SDS011;41718;51.980;5.734;2023-04-19T15:05:49;5.32;;;2.20;;
48789;SDS011;41718;51.980;5.734;2023-04-19T15:10:51;5.45;;;2.90;;
48789;SDS011;41718;51.980;5.734;2023-04-19T15:15:53;5.55;;;2.13;;
48789;SDS011;41718;51.980;5.734;2023-04-19T15:20:54;3.53;;;2.40;;
48789;SDS011;41718;51.980;5.734;2023-04-19T15:25:56;6.32;;;2.53;;
48789;SDS011;41718;51.980;5.734;2023-04-19T15:30:58;3.03;;;2.53;;
48789;SDS011;41718;51.980;5.734;2023-04-19T15:36:01;3.83;;;2.42;;
48789;SDS011;41718;51.980;5.734;2023-04-19T15:41:02;4.05;;;2.53;;
48789;SDS011;41718;51.980;5.734;2023-04-19T15:46:04;3.65;;;2.33;;
48789;SDS011;41718;51.980;5.734;2023-04-19T15:51:06;5.07;;;2.60;;
48789;SDS011;41718;51.980;5.734;2023-04-19T15:56:08;3.72;;;2.30;;
48789;SDS011;41718;51.980;5.734;2023-04-19T16:01:10;4.30;;;2.63;;
48789;SDS011;41718;51.980;5.734;2023-04-19T16:06:13;7.13;;;3.13;;
48789;SDS011;41718;51.980;5.734;2023-04-19T16:11:14;6.30;;;2.58;;
48789;SDS011;41718;51.980;5.734;2023-04-19T16:16:16;4.28;;;2.35;;
48789;SDS011;41718;51.980;5.734;2023-04-19T16:21:17;3.97;;;2.85;;
48789;SDS011;41718;51.980;5.734;2023-04-19T16:26:19;2.47;;;2.20;;
48789;SDS011;41718;51.980;5.734;2023-04-19T16:31:20;2.55;;;2.17;;
48789;SDS011;41718;51.980;5.734;2023-04-19T16:36:23;4.63;;;2.30;;
48789;SDS011;41718;51.980;5.734;2023-04-19T16:41:24;5.90;;;2.90;;
48789;SDS011;41718;51.980;5.734;2023-04-19T16:46:25;4.65;;;2.75;;
48789;SDS011;41718;51.980;5.734;2023-04-19T16:51:27;3.83;;;2.45;;
48789;SDS011;41718;51.980;5.734;2023-04-19T16:56:29;3.53;;;2.83;;
48789;SDS011;41718;51.980;5.734;2023-04-19T17:01:30;3.38;;;2.35;;
48789;SDS011;41718;51.980;5.734;2023-04-19T17:06:32;3.35;;;2.58;;
48789;SDS011;41718;51.980;5.734;2023-04-19T17:11:33;2.47;;;2.28;;
48789;SDS011;41718;51.980;5.734;2023-04-19T17:16:35;3.35;;;1.73;;
48789;SDS011;41718;51.980;5.734;2023-04-19T17:21:36;4.65;;;2.47;;
48789;SDS011;41718;51.980;5.734;2023-04-19T17:26:38;2.75;;;2.15;;
48789;SDS011;41718;51.980;5.734;2023-04-19T17:31:39;1.98;;;1.70;;
48789;SDS011;41718;51.980;5.734;2023-04-19T17:36:41;2.08;;;1.67;;
48789;SDS011;41718;51.980;5.734;2023-04-19T17:41:42;2.60;;;1.67;;
48789;SDS011;41718;51.980;5.734;2023-04-19T17:46:45;7.50;;;1.50;;
48789;SDS011;41718;51.980;5.734;2023-04-19T17:51:46;4.97;;;2.15;;
48789;SDS011;41718;51.980;5.734;2023-04-19T17:56:48;1.98;;;1.58;;
48789;SDS011;41718;51.980;5.734;2023-04-19T18:01:50;2.97;;;1.80;;
48789;SDS011;41718;51.980;5.734;2023-04-19T18:06:51;3.20;;;1.70;;
48789;SDS011;41718;51.980;5.734;2023-04-19T18:11:53;2.53;;;2.10;;
48789;SDS011;41718;51.980;5.734;2023-04-19T18:16:55;3.75;;;1.80;;
48789;SDS011;41718;51.980;5.734;2023-04-19T18:21:56;5.15;;;1.65;;
48789;SDS011;41718;51.980;5.734;2023-04-19T18:26:58;3.80;;;2.80;;
48789;SDS011;41718;51.980;5.734;2023-04-19T18:32:00;5.30;;;2.67;;
48789;SDS011;41718;51.980;5.734;2023-04-19T18:37:11;3.95;;;2.00;;
48789;SDS011;41718;51.980;5.734;2023-04-19T18:42:14;5.72;;;2.88;;
48789;SDS011;41718;51.980;5.734;2023-04-19T18:47:16;6.35;;;3.60;;
48789;SDS011;41718;51.980;5.734;2023-04-19T18:52:23;3.75;;;2.50;;
48789;SDS011;41718;51.980;5.734;2023-04-19T18:57:24;4.57;;;2.75;;
48789;SDS011;41718;51.980;5.734;2023-04-19T19:02:28;6.47;;;2.72;;
48789;SDS011;41718;51.980;5.734;2023-04-19T19:07:30;3.50;;;2.10;;
48789;SDS011;41718;51.980;5.734;2023-04-19T19:12:34;3.08;;;1.92;;
48789;SDS011;41718;51.980;5.734;2023-04-19T19:17:36;3.72;;;2.55;;
48789;SDS011;41718;51.980;5.734;2023-04-19T19:22:38;5.18;;;3.13;;
48789;SDS011;41718;51.980;5.734;2023-04-19T19:27:40;3.10;;;2.25;;
48789;SDS011;41718;51.980;5.734;2023-04-19T19:33:02;4.43;;;2.38;;
48789;SDS011;41718;51.980;5.734;2023-04-19T19:38:05;4.45;;;2.60;;
48789;SDS011;41718;51.980;5.734;2023-04-19T19:43:07;5.93;;;2.60;;
48789;SDS011;41718;51.980;5.734;2023-04-19T19:48:09;4.13;;;2.60;;
48789;SDS011;41718;51.980;5.734;2023-04-19T19:53:11;5.43;;;2.85;;
48789;SDS011;41718;51.980;5.734;2023-04-19T19:58:12;8.02;;;3.10;;
48789;SDS011;41718;51.980;5.734;2023-04-19T20:03:34;3.28;;;2.47;;
48789;SDS011;41718;51.980;5.734;2023-04-19T20:08:38;6.32;;;2.83;;
48789;SDS011;41718;51.980;5.734;2023-04-19T20:13:45;2.75;;;2.53;;
48789;SDS011;41718;51.980;5.734;2023-04-19T20:18:46;5.35;;;2.47;;
48789;SDS011;41718;51.980;5.734;2023-04-19T20:23:52;3.97;;;2.60;;
48789;SDS011;41718;51.980;5.734;2023-04-19T20:28:54;3.50;;;2.33;;
48789;SDS011;41718;51.980;5.734;2023-04-19T20:33:55;2.50;;;2.28;;
48789;SDS011;41718;51.980;5.734;2023-04-19T20:38:57;6.10;;;2.80;;
48789;SDS011;41718;51.980;5.734;2023-04-19T20:43:58;2.85;;;2.42;;
48789;SDS011;41718;51.980;5.734;2023-04-19T20:49:01;4.63;;;2.45;;
48789;SDS011;41718;51.980;5.734;2023-04-19T20:54:02;4.50;;;2.50;;
48789;SDS011;41718;51.980;5.734;2023-04-19T20:59:06;5.72;;;2.50;;
48789;SDS011;41718;51.980;5.734;2023-04-19T21:04:08;3.08;;;2.42;;
48789;SDS011;41718;51.980;5.734;2023-04-19T21:09:10;3.38;;;2.78;;
48789;SDS011;41718;51.980;5.734;2023-04-19T21:14:11;2.35;;;2.10;;
48789;SDS011;41718;51.980;5.734;2023-04-19T21:19:16;5.80;;;2.72;;
48789;SDS011;41718;51.980;5.734;2023-04-19T21:24:18;5.00;;;2.40;;
48789;SDS011;41718;51.980;5.734;2023-04-19T21:29:20;4.32;;;2.22;;
48789;SDS011;41718;51.980;5.734;2023-04-19T21:34:25;4.22;;;1.85;;
48789;SDS011;41718;51.980;5.734;2023-04-19T21:39:26;7.57;;;2.33;;
48789;SDS011;41718;51.980;5.734;2023-04-19T21:44:28;6.70;;;2.75;;
48789;SDS011;41718;51.980;5.734;2023-04-19T21:49:29;11.18;;;2.83;;
48789;SDS011;41718;51.980;5.734;2023-04-19T21:54:31;12.82;;;2.67;;
48789;SDS011;41718;51.980;5.734;2023-04-19T21:59:34;6.93;;;2.47;;
48789;SDS011;41718;51.980;5.734;2023-04-19T22:04:36;4.55;;;2.70;;
48789;SDS011;41718;51.980;5.734;2023-04-19T22:09:39;2.20;;;1.92;;
48789;SDS011;41718;51.980;5.734;2023-04-19T22:14:41;3.28;;;2.33;;
48789;SDS011;41718;51.980;5.734;2023-04-19T22:19:43;5.07;;;2.55;;
48789;SDS011;41718;51.980;5.734;2023-04-19T22:24:45;4.57;;;2.63;;
48789;SDS011;41718;51.980;5.734;2023-04-19T22:29:57;6.78;;;2.42;;
48789;SDS011;41718;51.980;5.734;2023-04-19T22:34:58;3.20;;;2.35;;
48789;SDS011;41718;51.980;5.734;2023-04-19T22:40:00;4.25;;;2.45;;
48789;SDS011;41718;51.980;5.734;2023-04-19T22:45:02;10.55;;;2.53;;
48789;SDS011;41718;51.980;5.734;2023-04-19T22:50:04;3.22;;;1.70;;
48789;SDS011;41718;51.980;5.734;2023-04-19T22:55:05;3.28;;;2.00;;
48789;SDS011;41718;51.980;5.734;2023-04-19T23:00:07;6.05;;;2.17;;
48789;SDS011;41718;51.980;5.734;2023-04-19T23:05:12;5.97;;;2.05;;
48789;SDS011;41718;51.980;5.734;2023-04-19T23:10:14;3.33;;;2.35;;
48789;SDS011;41718;51.980;5.734;2023-04-19T23:15:16;2.50;;;2.00;;
48789;SDS011;41718;51.980;5.734;2023-04-19T23:20:17;1.90;;;1.65;;
48789;SDS011;41718;51.980;5.734;2023-04-19T23:25:19;15.25;;;2.47;;
48789;SDS011;41718;51.980;5.734;2023-04-19T23:30:20;2.42;;;1.60;;
48789;SDS011;41718;51.980;5.734;2023-04-19T23:35:22;3.88;;;2.13;;
48789;SDS011;41718;51.980;5.734;2023-04-19T23:40:23;3.75;;;2.20;;
48789;SDS011;41718;51.980;5.734;2023-04-19T23:45:25;2.40;;;1.85;;
48789;SDS011;41718;51.980;5.734;2023-04-19T23:50:26;4.35;;;2.60;;
48789;SDS011;41718;51.980;5.734;2023-04-19T23:55:28;3.25;;;2.47;;
